sensor_id;sensor_type;location;lat;lon;timestamp;temperature;humidity
32534;DHT22;18973;48.580;8.912;2024-03-02T00:00:09;6.20;99.90
32534;DHT22;18973;48.580;8.912;2024-03-02T00:02:43;6.20;99.90
32534;DHT22;18973;48.580;8.912;2024-03-02T00:07:43;6.20;99.90
32534;DHT22;18973;48.580;8.912;2024-03-02T00:10:11;6.10;99.90
32534;DHT22;18973;48.580;8.912;2024-03-02T00:12:38;6.00;99.90
32534;DHT22;18973;48.580;8.912;2024-03-02T00:17:59;6.10;99.90
32534;DHT22;18973;48.580;8.912;2024-03-02T00:20:25;6.10;99.90
32534;DHT22;18973;48.580;8.912;2024-03-02T00:23:04;6.10;99.90
32534;DHT22;18973;48.580;8.912;2024-03-02T00:25:41;6.00;99.90
32534;DHT22;18973;48.580;8.912;2024-03-02T00:28:14;6.10;99.90
32534;DHT22;18973;48.580;8.912;2024-03-02T00:31:03;6.10;99.90
32534;DHT22;18973;48.580;8.912;2024-03-02T00:36:07;6.30;99.90
32534;DHT22;18973;48.580;8.912;2024-03-02T00:38:34;6.30;99.90
32534;DHT22;18973;48.580;8.912;2024-03-02T00:41:04;6.40;99.90
32534;DHT22;18973;48.580;8.912;2024-03-02T00:46:21;6.50;99.90
32534;DHT22;18973;48.580;8.912;2024-03-02T00:48:57;6.40;99.90
32534;DHT22;18973;48.580;8.912;2024-03-02T00:51:25;6.40;99.90
32534;DHT22;18973;48.580;8.912;2024-03-02T00:53:52;6.40;99.90
32534;DHT22;18973;48.580;8.912;2024-03-02T00:56:18;6.40;99.90
32534;DHT22;18973;48.580;8.912;2024-03-02T00:58:44;6.40;99.90
32534;DHT22;18973;48.580;8.912;2024-03-02T01:01:09;6.30;99.90
32534;DHT22;18973;48.580;8.912;2024-03-02T01:03:35;6.20;99.90
32534;DHT22;18973;48.580;8.912;2024-03-02T01:06:03;6.20;99.90
32534;DHT22;18973;48.580;8.912;2024-03-02T01:08:29;6.20;99.90
32534;DHT22;18973;48.580;8.912;2024-03-02T01:10:55;6.20;99.90
32534;DHT22;18973;48.580;8.912;2024-03-02T01:13:22;6.20;99.90
32534;DHT22;18973;48.580;8.912;2024-03-02T01:15:49;6.10;99.90
32534;DHT22;18973;48.580;8.912;2024-03-02T01:18:14;6.10;99.90
32534;DHT22;18973;48.580;8.912;2024-03-02T01:20:40;6.10;99.90
32534;DHT22;18973;48.580;8.912;2024-03-02T01:23:06;6.10;99.90
32534;DHT22;18973;48.580;8.912;2024-03-02T01:25:31;6.10;99.90
32534;DHT22;18973;48.580;8.912;2024-03-02T01:27:57;6.10;99.90
32534;DHT22;18973;48.580;8.912;2024-03-02T01:30:23;6.10;99.90
32534;DHT22;18973;48.580;8.912;2024-03-02T01:32:49;6.10;99.90
32534;DHT22;18973;48.580;8.912;2024-03-02T01:35:14;6.10;99.90
32534;DHT22;18973;48.580;8.912;2024-03-02T01:37:41;6.10;99.90
32534;DHT22;18973;48.580;8.912;2024-03-02T01:40:07;6.20;99.90
32534;DHT22;18973;48.580;8.912;2024-03-02T01:42:38;6.10;99.90
32534;DHT22;18973;48.580;8.912;2024-03-02T01:45:10;6.30;99.90
32534;DHT22;18973;48.580;8.912;2024-03-02T01:47:35;6.30;99.90
32534;DHT22;18973;48.580;8.912;2024-03-02T01:50:01;6.30;99.90
32534;DHT22;18973;48.580;8.912;2024-03-02T01:52:27;6.40;99.90
32534;DHT22;18973;48.580;8.912;2024-03-02T01:54:53;6.30;99.90
32534;DHT22;18973;48.580;8.912;2024-03-02T01:57:19;6.20;99.90
32534;DHT22;18973;48.580;8.912;2024-03-02T01:59:45;6.20;99.90
32534;DHT22;18973;48.580;8.912;2024-03-02T02:02:14;6.30;99.90
32534;DHT22;18973;48.580;8.912;2024-03-02T02:04:39;6.20;99.90
32534;DHT22;18973;48.580;8.912;2024-03-02T02:07:05;6.10;99.90
32534;DHT22;18973;48.580;8.912;2024-03-02T02:09:32;6.00;99.90
32534;DHT22;18973;48.580;8.912;2024-03-02T02:11:58;6.10;99.90
32534;DHT22;18973;48.580;8.912;2024-03-02T02:14:24;6.00;99.90
32534;DHT22;18973;48.580;8.912;2024-03-02T02:16:49;6.00;99.90
32534;DHT22;18973;48.580;8.912;2024-03-02T02:19:15;5.90;99.90
32534;DHT22;18973;48.580;8.912;2024-03-02T02:21:44;5.90;99.90
32534;DHT22;18973;48.580;8.912;2024-03-02T02:24:10;5.90;99.90
32534;DHT22;18973;48.580;8.912;2024-03-02T02:26:35;5.90;99.90
32534;DHT22;18973;48.580;8.912;2024-03-02T02:29:01;5.90;99.90
32534;DHT22;18973;48.580;8.912;2024-03-02T02:31:36;5.90;99.90
32534;DHT22;18973;48.580;8.912;2024-03-02T02:34:01;5.90;99.90
32534;DHT22;18973;48.580;8.912;2024-03-02T02:36:27;6.00;99.90
32534;DHT22;18973;48.580;8.912;2024-03-02T02:38:53;6.00;99.90
32534;DHT22;18973;48.580;8.912;2024-03-02T02:41:18;5.90;99.90
32534;DHT22;18973;48.580;8.912;2024-03-02T02:43:44;5.90;99.90
32534;DHT22;18973;48.580;8.912;2024-03-02T02:46:10;5.90;99.90
32534;DHT22;18973;48.580;8.912;2024-03-02T02:48:35;5.90;99.90
32534;DHT22;18973;48.580;8.912;2024-03-02T02:51:01;6.00;99.90
32534;DHT22;18973;48.580;8.912;2024-03-02T02:53:27;6.10;99.90
32534;DHT22;18973;48.580;8.912;2024-03-02T02:55:53;6.20;99.90
32534;DHT22;18973;48.580;8.912;2024-03-02T02:58:18;6.20;99.90
32534;DHT22;18973;48.580;8.912;2024-03-02T03:00:44;6.10;99.90
32534;DHT22;18973;48.580;8.912;2024-03-02T03:03:10;5.90;99.90
32534;DHT22;18973;48.580;8.912;2024-03-02T03:05:35;5.50;99.90
32534;DHT22;18973;48.580;8.912;2024-03-02T03:08:01;5.40;99.90
32534;DHT22;18973;48.580;8.912;2024-03-02T03:10:27;5.30;99.90
32534;DHT22;18973;48.580;8.912;2024-03-02T03:12:53;5.20;99.90
32534;DHT22;18973;48.580;8.912;2024-03-02T03:15:21;4.90;99.90
32534;DHT22;18973;48.580;8.912;2024-03-02T03:17:47;4.80;99.90
32534;DHT22;18973;48.580;8.912;2024-03-02T03:20:13;5.00;99.90
32534;DHT22;18973;48.580;8.912;2024-03-02T03:22:39;4.90;99.90
32534;DHT22;18973;48.580;8.912;2024-03-02T03:25:05;5.00;99.90
32534;DHT22;18973;48.580;8.912;2024-03-02T03:27:32;4.80;99.90
32534;DHT22;18973;48.580;8.912;2024-03-02T03:29:58;4.80;99.90
32534;DHT22;18973;48.580;8.912;2024-03-02T03:32:23;4.80;99.90
32534;DHT22;18973;48.580;8.912;2024-03-02T03:34:49;4.70;99.90
32534;DHT22;18973;48.580;8.912;2024-03-02T03:37:15;4.70;99.90
32534;DHT22;18973;48.580;8.912;2024-03-02T03:39:41;4.70;99.90
32534;DHT22;18973;48.580;8.912;2024-03-02T03:42:06;4.70;99.90
32534;DHT22;18973;48.580;8.912;2024-03-02T03:44:32;4.70;99.90
32534;DHT22;18973;48.580;8.912;2024-03-02T03:46:59;4.90;99.90
32534;DHT22;18973;48.580;8.912;2024-03-02T03:49:26;4.60;99.90
32534;DHT22;18973;48.580;8.912;2024-03-02T03:51:52;4.80;99.90
32534;DHT22;18973;48.580;8.912;2024-03-02T03:54:17;4.80;99.90
32534;DHT22;18973;48.580;8.912;2024-03-02T03:56:43;4.70;99.90
32534;DHT22;18973;48.580;8.912;2024-03-02T03:59:08;4.70;99.90
32534;DHT22;18973;48.580;8.912;2024-03-02T04:01:34;4.90;99.90
32534;DHT22;18973;48.580;8.912;2024-03-02T04:04:00;5.00;99.90
32534;DHT22;18973;48.580;8.912;2024-03-02T04:06:27;4.90;99.90
32534;DHT22;18973;48.580;8.912;2024-03-02T04:08:53;4.70;99.90
32534;DHT22;18973;48.580;8.912;2024-03-02T04:11:18;4.70;99.90
32534;DHT22;18973;48.580;8.912;2024-03-02T04:13:44;4.60;99.90
32534;DHT22;18973;48.580;8.912;2024-03-02T04:16:10;4.30;99.90
32534;DHT22;18973;48.580;8.912;2024-03-02T04:18:35;4.50;99.90
32534;DHT22;18973;48.580;8.912;2024-03-02T04:21:01;4.40;99.90
32534;DHT22;18973;48.580;8.912;2024-03-02T04:23:27;4.50;99.90
32534;DHT22;18973;48.580;8.912;2024-03-02T04:25:52;4.30;99.90
32534;DHT22;18973;48.580;8.912;2024-03-02T04:28:18;4.40;99.90
32534;DHT22;18973;48.580;8.912;2024-03-02T04:30:44;4.30;99.90
32534;DHT22;18973;48.580;8.912;2024-03-02T04:33:09;4.50;99.90
32534;DHT22;18973;48.580;8.912;2024-03-02T04:35:36;4.50;99.90
32534;DHT22;18973;48.580;8.912;2024-03-02T04:38:02;4.50;99.90
32534;DHT22;18973;48.580;8.912;2024-03-02T04:40:28;4.50;99.90
32534;DHT22;18973;48.580;8.912;2024-03-02T04:42:53;4.30;99.90
32534;DHT22;18973;48.580;8.912;2024-03-02T04:45:19;4.30;99.90
32534;DHT22;18973;48.580;8.912;2024-03-02T04:47:45;4.20;99.90
32534;DHT22;18973;48.580;8.912;2024-03-02T04:50:11;4.20;99.90
32534;DHT22;18973;48.580;8.912;2024-03-02T04:52:36;4.10;99.90
32534;DHT22;18973;48.580;8.912;2024-03-02T04:55:03;4.30;99.90
32534;DHT22;18973;48.580;8.912;2024-03-02T04:57:47;4.50;99.90
32534;DHT22;18973;48.580;8.912;2024-03-02T05:00:13;4.30;99.90
32534;DHT22;18973;48.580;8.912;2024-03-02T05:02:39;4.20;99.90
32534;DHT22;18973;48.580;8.912;2024-03-02T05:05:05;4.10;99.90
32534;DHT22;18973;48.580;8.912;2024-03-02T05:07:30;4.20;99.90
32534;DHT22;18973;48.580;8.912;2024-03-02T05:09:56;4.00;99.90
32534;DHT22;18973;48.580;8.912;2024-03-02T05:12:22;4.00;99.90
32534;DHT22;18973;48.580;8.912;2024-03-02T05:15:06;3.90;99.90
32534;DHT22;18973;48.580;8.912;2024-03-02T05:17:33;3.90;99.90
32534;DHT22;18973;48.580;8.912;2024-03-02T05:19:58;4.00;99.90
32534;DHT22;18973;48.580;8.912;2024-03-02T05:22:24;3.90;99.90
32534;DHT22;18973;48.580;8.912;2024-03-02T05:24:50;3.90;99.90
32534;DHT22;18973;48.580;8.912;2024-03-02T05:27:15;4.00;99.90
32534;DHT22;18973;48.580;8.912;2024-03-02T05:29:41;4.10;99.90
32534;DHT22;18973;48.580;8.912;2024-03-02T05:32:07;4.00;99.90
32534;DHT22;18973;48.580;8.912;2024-03-02T05:34:32;3.80;99.90
32534;DHT22;18973;48.580;8.912;2024-03-02T05:37:01;3.70;99.90
32534;DHT22;18973;48.580;8.912;2024-03-02T05:39:26;3.60;99.90
32534;DHT22;18973;48.580;8.912;2024-03-02T05:41:52;3.60;99.90
32534;DHT22;18973;48.580;8.912;2024-03-02T05:44:18;3.60;99.90
32534;DHT22;18973;48.580;8.912;2024-03-02T05:46:45;3.70;99.90
32534;DHT22;18973;48.580;8.912;2024-03-02T05:49:10;3.70;99.90
32534;DHT22;18973;48.580;8.912;2024-03-02T05:51:36;3.90;99.90
32534;DHT22;18973;48.580;8.912;2024-03-02T05:54:02;3.80;99.90
32534;DHT22;18973;48.580;8.912;2024-03-02T05:56:28;3.70;99.90
32534;DHT22;18973;48.580;8.912;2024-03-02T05:58:54;3.80;99.90
32534;DHT22;18973;48.580;8.912;2024-03-02T06:04:04;3.90;99.90
32534;DHT22;18973;48.580;8.912;2024-03-02T06:06:30;3.90;99.90
32534;DHT22;18973;48.580;8.912;2024-03-02T06:08:55;3.90;99.90
32534;DHT22;18973;48.580;8.912;2024-03-02T06:11:21;4.00;99.90
32534;DHT22;18973;48.580;8.912;2024-03-02T06:13:47;4.10;99.90
32534;DHT22;18973;48.580;8.912;2024-03-02T06:16:14;4.10;99.90
32534;DHT22;18973;48.580;8.912;2024-03-02T06:18:39;4.00;99.90
32534;DHT22;18973;48.580;8.912;2024-03-02T06:21:05;3.90;99.90
32534;DHT22;18973;48.580;8.912;2024-03-02T06:23:31;4.20;99.90
32534;DHT22;18973;48.580;8.912;2024-03-02T06:25:57;4.30;99.90
32534;DHT22;18973;48.580;8.912;2024-03-02T06:28:23;4.30;99.90
32534;DHT22;18973;48.580;8.912;2024-03-02T06:30:48;4.20;99.90
32534;DHT22;18973;48.580;8.912;2024-03-02T06:33:14;4.10;99.90
32534;DHT22;18973;48.580;8.912;2024-03-02T06:35:40;4.10;99.90
32534;DHT22;18973;48.580;8.912;2024-03-02T06:38:06;4.20;99.90
32534;DHT22;18973;48.580;8.912;2024-03-02T06:40:32;4.20;99.90
32534;DHT22;18973;48.580;8.912;2024-03-02T06:42:57;4.30;99.90
32534;DHT22;18973;48.580;8.912;2024-03-02T06:45:23;4.30;99.90
32534;DHT22;18973;48.580;8.912;2024-03-02T06:47:49;4.30;99.90
32534;DHT22;18973;48.580;8.912;2024-03-02T06:50:15;4.40;99.90
32534;DHT22;18973;48.580;8.912;2024-03-02T06:52:40;4.50;99.90
32534;DHT22;18973;48.580;8.912;2024-03-02T06:55:06;4.50;99.90
32534;DHT22;18973;48.580;8.912;2024-03-02T06:57:32;4.60;99.90
32534;DHT22;18973;48.580;8.912;2024-03-02T06:59:58;4.50;99.90
32534;DHT22;18973;48.580;8.912;2024-03-02T07:02:24;4.60;99.90
32534;DHT22;18973;48.580;8.912;2024-03-02T07:04:55;4.60;99.90
32534;DHT22;18973;48.580;8.912;2024-03-02T07:07:21;4.70;99.90
32534;DHT22;18973;48.580;8.912;2024-03-02T07:09:47;4.90;99.90
32534;DHT22;18973;48.580;8.912;2024-03-02T07:12:13;4.90;99.90
32534;DHT22;18973;48.580;8.912;2024-03-02T07:14:39;5.00;99.90
32534;DHT22;18973;48.580;8.912;2024-03-02T07:17:23;5.20;99.90
32534;DHT22;18973;48.580;8.912;2024-03-02T07:19:49;5.20;99.90
32534;DHT22;18973;48.580;8.912;2024-03-02T07:22:14;5.20;99.90
32534;DHT22;18973;48.580;8.912;2024-03-02T07:24:41;5.10;99.90
32534;DHT22;18973;48.580;8.912;2024-03-02T07:27:07;5.00;99.90
32534;DHT22;18973;48.580;8.912;2024-03-02T07:29:33;5.00;99.90
32534;DHT22;18973;48.580;8.912;2024-03-02T07:31:59;5.10;99.90
32534;DHT22;18973;48.580;8.912;2024-03-02T07:34:25;5.00;99.90
32534;DHT22;18973;48.580;8.912;2024-03-02T07:36:51;5.00;99.90
32534;DHT22;18973;48.580;8.912;2024-03-02T07:39:16;5.00;99.90
32534;DHT22;18973;48.580;8.912;2024-03-02T07:41:42;5.20;99.90
32534;DHT22;18973;48.580;8.912;2024-03-02T07:44:09;5.30;99.90
32534;DHT22;18973;48.580;8.912;2024-03-02T07:46:34;5.40;99.90
32534;DHT22;18973;48.580;8.912;2024-03-02T07:49:00;5.70;99.90
32534;DHT22;18973;48.580;8.912;2024-03-02T07:51:26;6.00;99.90
32534;DHT22;18973;48.580;8.912;2024-03-02T07:53:51;6.40;99.90
32534;DHT22;18973;48.580;8.912;2024-03-02T07:56:17;6.90;99.90
32534;DHT22;18973;48.580;8.912;2024-03-02T07:58:48;7.30;99.90
32534;DHT22;18973;48.580;8.912;2024-03-02T08:01:14;7.50;99.90
32534;DHT22;18973;48.580;8.912;2024-03-02T08:03:40;7.80;99.90
32534;DHT22;18973;48.580;8.912;2024-03-02T08:06:06;8.20;99.90
32534;DHT22;18973;48.580;8.912;2024-03-02T08:08:32;8.40;99.90
32534;DHT22;18973;48.580;8.912;2024-03-02T08:10:58;8.50;99.90
32534;DHT22;18973;48.580;8.912;2024-03-02T08:13:23;8.80;99.90
32534;DHT22;18973;48.580;8.912;2024-03-02T08:15:49;8.90;99.90
32534;DHT22;18973;48.580;8.912;2024-03-02T08:18:15;9.20;99.90
32534;DHT22;18973;48.580;8.912;2024-03-02T08:20:41;9.50;99.90
32534;DHT22;18973;48.580;8.912;2024-03-02T08:23:06;9.70;99.90
32534;DHT22;18973;48.580;8.912;2024-03-02T08:25:33;9.80;99.90
32534;DHT22;18973;48.580;8.912;2024-03-02T08:27:59;10.00;99.90
32534;DHT22;18973;48.580;8.912;2024-03-02T08:30:25;10.20;99.90
32534;DHT22;18973;48.580;8.912;2024-03-02T08:32:50;10.30;99.90
32534;DHT22;18973;48.580;8.912;2024-03-02T08:35:16;10.60;99.90
32534;DHT22;18973;48.580;8.912;2024-03-02T08:37:44;10.80;99.90
32534;DHT22;18973;48.580;8.912;2024-03-02T08:40:10;11.10;99.90
32534;DHT22;18973;48.580;8.912;2024-03-02T08:42:36;11.00;99.90
32534;DHT22;18973;48.580;8.912;2024-03-02T08:45:02;11.20;99.90
32534;DHT22;18973;48.580;8.912;2024-03-02T08:47:27;11.20;99.90
32534;DHT22;18973;48.580;8.912;2024-03-02T08:49:53;11.30;99.90
32534;DHT22;18973;48.580;8.912;2024-03-02T08:52:19;11.30;99.90
32534;DHT22;18973;48.580;8.912;2024-03-02T08:54:44;11.40;99.90
32534;DHT22;18973;48.580;8.912;2024-03-02T08:57:10;11.50;99.90
32534;DHT22;18973;48.580;8.912;2024-03-02T08:59:36;11.40;99.90
32534;DHT22;18973;48.580;8.912;2024-03-02T09:02:02;11.10;99.90
32534;DHT22;18973;48.580;8.912;2024-03-02T09:04:28;11.40;99.90
32534;DHT22;18973;48.580;8.912;2024-03-02T09:06:54;11.60;99.90
32534;DHT22;18973;48.580;8.912;2024-03-02T09:09:20;11.70;99.90
32534;DHT22;18973;48.580;8.912;2024-03-02T09:11:48;11.80;99.90
32534;DHT22;18973;48.580;8.912;2024-03-02T09:14:14;11.90;99.90
32534;DHT22;18973;48.580;8.912;2024-03-02T09:16:40;11.90;99.90
32534;DHT22;18973;48.580;8.912;2024-03-02T09:19:06;11.90;99.90
32534;DHT22;18973;48.580;8.912;2024-03-02T09:21:31;10.70;99.90
32534;DHT22;18973;48.580;8.912;2024-03-02T09:23:57;10.60;99.90
32534;DHT22;18973;48.580;8.912;2024-03-02T09:26:23;11.10;99.90
32534;DHT22;18973;48.580;8.912;2024-03-02T09:28:50;11.40;99.90
32534;DHT22;18973;48.580;8.912;2024-03-02T09:31:16;11.60;99.90
32534;DHT22;18973;48.580;8.912;2024-03-02T09:33:42;11.70;99.90
32534;DHT22;18973;48.580;8.912;2024-03-02T09:36:20;11.90;99.90
32534;DHT22;18973;48.580;8.912;2024-03-02T09:38:46;12.00;99.90
32534;DHT22;18973;48.580;8.912;2024-03-02T09:41:13;12.30;99.90
32534;DHT22;18973;48.580;8.912;2024-03-02T09:43:40;12.40;99.90
32534;DHT22;18973;48.580;8.912;2024-03-02T09:46:07;12.40;99.90
32534;DHT22;18973;48.580;8.912;2024-03-02T09:48:34;12.50;99.90
32534;DHT22;18973;48.580;8.912;2024-03-02T09:51:00;12.40;99.90
32534;DHT22;18973;48.580;8.912;2024-03-02T09:53:33;12.40;99.90
32534;DHT22;18973;48.580;8.912;2024-03-02T09:56:02;12.50;99.90
32534;DHT22;18973;48.580;8.912;2024-03-02T09:58:28;12.70;99.90
32534;DHT22;18973;48.580;8.912;2024-03-02T10:00:54;12.70;99.90
32534;DHT22;18973;48.580;8.912;2024-03-02T10:03:19;12.80;99.90
32534;DHT22;18973;48.580;8.912;2024-03-02T10:05:46;12.70;99.90
32534;DHT22;18973;48.580;8.912;2024-03-02T10:08:12;12.70;99.90
32534;DHT22;18973;48.580;8.912;2024-03-02T10:10:40;12.70;99.90
32534;DHT22;18973;48.580;8.912;2024-03-02T10:13:12;12.80;99.90
32534;DHT22;18973;48.580;8.912;2024-03-02T10:15:39;13.00;99.90
32534;DHT22;18973;48.580;8.912;2024-03-02T10:18:09;13.00;99.90
32534;DHT22;18973;48.580;8.912;2024-03-02T10:20:39;12.90;99.90
32534;DHT22;18973;48.580;8.912;2024-03-02T10:25:36;13.10;99.90
32534;DHT22;18973;48.580;8.912;2024-03-02T10:28:02;13.30;99.90
32534;DHT22;18973;48.580;8.912;2024-03-02T10:30:32;13.50;99.90
32534;DHT22;18973;48.580;8.912;2024-03-02T10:32:58;13.60;99.20
32534;DHT22;18973;48.580;8.912;2024-03-02T10:35:24;13.70;99.00
32534;DHT22;18973;48.580;8.912;2024-03-02T10:37:52;13.70;99.00
32534;DHT22;18973;48.580;8.912;2024-03-02T10:40:18;13.70;98.90
32534;DHT22;18973;48.580;8.912;2024-03-02T10:42:45;13.90;99.50
32534;DHT22;18973;48.580;8.912;2024-03-02T10:45:12;14.20;99.20
32534;DHT22;18973;48.580;8.912;2024-03-02T10:47:41;14.30;98.40
32534;DHT22;18973;48.580;8.912;2024-03-02T10:50:08;14.50;97.60
32534;DHT22;18973;48.580;8.912;2024-03-02T10:52:40;14.50;98.40
32534;DHT22;18973;48.580;8.912;2024-03-02T10:55:07;14.50;97.50
32534;DHT22;18973;48.580;8.912;2024-03-02T10:57:44;14.50;98.00
32534;DHT22;18973;48.580;8.912;2024-03-02T11:00:12;14.50;97.80
32534;DHT22;18973;48.580;8.912;2024-03-02T11:02:50;14.70;97.90
32534;DHT22;18973;48.580;8.912;2024-03-02T11:05:24;14.70;97.90
32534;DHT22;18973;48.580;8.912;2024-03-02T11:07:56;14.80;98.00
32534;DHT22;18973;48.580;8.912;2024-03-02T11:10:23;14.90;96.80
32534;DHT22;18973;48.580;8.912;2024-03-02T11:13:02;14.90;97.10
32534;DHT22;18973;48.580;8.912;2024-03-02T11:15:31;15.10;97.20
32534;DHT22;18973;48.580;8.912;2024-03-02T11:18:00;15.20;95.80
32534;DHT22;18973;48.580;8.912;2024-03-02T11:20:27;15.30;96.80
32534;DHT22;18973;48.580;8.912;2024-03-02T11:22:54;15.50;97.90
32534;DHT22;18973;48.580;8.912;2024-03-02T11:25:27;15.50;95.60
32534;DHT22;18973;48.580;8.912;2024-03-02T11:33:06;15.40;95.00
32534;DHT22;18973;48.580;8.912;2024-03-02T11:35:42;15.40;95.80
32534;DHT22;18973;48.580;8.912;2024-03-02T11:38:09;15.50;95.40
32534;DHT22;18973;48.580;8.912;2024-03-02T11:40:35;15.50;95.70
32534;DHT22;18973;48.580;8.912;2024-03-02T11:43:01;15.60;94.80
32534;DHT22;18973;48.580;8.912;2024-03-02T11:45:27;15.60;95.30
32534;DHT22;18973;48.580;8.912;2024-03-02T11:47:57;15.70;96.70
32534;DHT22;18973;48.580;8.912;2024-03-02T11:50:49;16.40;97.60
32534;DHT22;18973;48.580;8.912;2024-03-02T11:53:15;16.80;95.90
32534;DHT22;18973;48.580;8.912;2024-03-02T11:55:41;17.10;96.70
32534;DHT22;18973;48.580;8.912;2024-03-02T11:58:12;17.10;94.10
32534;DHT22;18973;48.580;8.912;2024-03-02T12:00:38;16.60;94.40
32534;DHT22;18973;48.580;8.912;2024-03-02T12:03:09;16.50;93.60
32534;DHT22;18973;48.580;8.912;2024-03-02T12:05:35;16.40;92.60
32534;DHT22;18973;48.580;8.912;2024-03-02T12:08:03;16.40;92.60
32534;DHT22;18973;48.580;8.912;2024-03-02T12:10:30;16.30;93.00
32534;DHT22;18973;48.580;8.912;2024-03-02T12:13:00;16.40;91.40
32534;DHT22;18973;48.580;8.912;2024-03-02T12:15:31;16.20;90.20
32534;DHT22;18973;48.580;8.912;2024-03-02T12:17:58;16.20;91.20
32534;DHT22;18973;48.580;8.912;2024-03-02T12:20:25;16.20;90.30
32534;DHT22;18973;48.580;8.912;2024-03-02T12:22:52;16.40;91.10
32534;DHT22;18973;48.580;8.912;2024-03-02T12:25:22;16.40;91.00
32534;DHT22;18973;48.580;8.912;2024-03-02T12:27:53;16.40;90.50
32534;DHT22;18973;48.580;8.912;2024-03-02T12:30:20;16.40;90.70
32534;DHT22;18973;48.580;8.912;2024-03-02T12:32:46;16.40;91.40
32534;DHT22;18973;48.580;8.912;2024-03-02T12:35:12;16.50;90.80
32534;DHT22;18973;48.580;8.912;2024-03-02T12:37:45;16.80;92.60
32534;DHT22;18973;48.580;8.912;2024-03-02T12:40:12;17.00;91.60
32534;DHT22;18973;48.580;8.912;2024-03-02T12:42:41;17.20;90.20
32534;DHT22;18973;48.580;8.912;2024-03-02T12:45:10;16.70;90.20
32534;DHT22;18973;48.580;8.912;2024-03-02T12:47:36;16.90;90.20
32534;DHT22;18973;48.580;8.912;2024-03-02T12:50:05;17.10;90.60
32534;DHT22;18973;48.580;8.912;2024-03-02T12:52:32;17.10;90.20
32534;DHT22;18973;48.580;8.912;2024-03-02T12:54:59;17.20;91.70
32534;DHT22;18973;48.580;8.912;2024-03-02T12:57:26;17.40;92.90
32534;DHT22;18973;48.580;8.912;2024-03-02T13:00:02;17.50;91.40
32534;DHT22;18973;48.580;8.912;2024-03-02T13:02:35;17.50;88.70
32534;DHT22;18973;48.580;8.912;2024-03-02T13:05:01;17.30;87.20
32534;DHT22;18973;48.580;8.912;2024-03-02T13:07:27;17.50;96.20
32534;DHT22;18973;48.580;8.912;2024-03-02T13:09:55;17.20;90.20
32534;DHT22;18973;48.580;8.912;2024-03-02T13:12:22;17.50;98.00
32534;DHT22;18973;48.580;8.912;2024-03-02T13:14:49;17.60;91.00
32534;DHT22;18973;48.580;8.912;2024-03-02T13:17:17;17.40;90.20
32534;DHT22;18973;48.580;8.912;2024-03-02T13:19:58;17.40;90.40
32534;DHT22;18973;48.580;8.912;2024-03-02T13:22:25;17.20;91.00
32534;DHT22;18973;48.580;8.912;2024-03-02T13:24:52;17.20;90.30
32534;DHT22;18973;48.580;8.912;2024-03-02T13:27:20;17.20;90.50
32534;DHT22;18973;48.580;8.912;2024-03-02T13:29:46;17.30;90.60
32534;DHT22;18973;48.580;8.912;2024-03-02T13:32:16;17.30;90.60
32534;DHT22;18973;48.580;8.912;2024-03-02T13:34:42;16.90;89.80
32534;DHT22;18973;48.580;8.912;2024-03-02T13:37:08;17.30;96.50
32534;DHT22;18973;48.580;8.912;2024-03-02T13:39:35;18.10;96.40
32534;DHT22;18973;48.580;8.912;2024-03-02T13:42:10;17.80;87.20
32534;DHT22;18973;48.580;8.912;2024-03-02T13:44:37;18.00;91.20
32534;DHT22;18973;48.580;8.912;2024-03-02T13:47:04;18.00;89.80
32534;DHT22;18973;48.580;8.912;2024-03-02T13:49:30;17.80;90.50
32534;DHT22;18973;48.580;8.912;2024-03-02T13:52:00;17.80;90.30
32534;DHT22;18973;48.580;8.912;2024-03-02T13:54:29;17.70;89.60
32534;DHT22;18973;48.580;8.912;2024-03-02T13:56:55;17.60;90.50
32534;DHT22;18973;48.580;8.912;2024-03-02T13:59:23;17.70;86.00
32534;DHT22;18973;48.580;8.912;2024-03-02T14:01:49;17.70;88.60
32534;DHT22;18973;48.580;8.912;2024-03-02T14:04:15;17.60;89.90
32534;DHT22;18973;48.580;8.912;2024-03-02T14:06:42;17.50;86.10
32534;DHT22;18973;48.580;8.912;2024-03-02T14:09:09;17.40;86.70
32534;DHT22;18973;48.580;8.912;2024-03-02T14:11:34;17.40;86.50
32534;DHT22;18973;48.580;8.912;2024-03-02T14:14:01;17.50;87.20
32534;DHT22;18973;48.580;8.912;2024-03-02T14:16:27;17.50;85.70
32534;DHT22;18973;48.580;8.912;2024-03-02T14:18:53;17.20;85.90
32534;DHT22;18973;48.580;8.912;2024-03-02T14:21:18;16.80;87.30
32534;DHT22;18973;48.580;8.912;2024-03-02T14:23:44;16.60;88.80
32534;DHT22;18973;48.580;8.912;2024-03-02T14:26:10;16.80;89.20
32534;DHT22;18973;48.580;8.912;2024-03-02T14:28:35;16.80;88.80
32534;DHT22;18973;48.580;8.912;2024-03-02T14:31:01;17.00;87.40
32534;DHT22;18973;48.580;8.912;2024-03-02T14:33:28;17.00;88.30
32534;DHT22;18973;48.580;8.912;2024-03-02T14:35:53;17.30;87.90
32534;DHT22;18973;48.580;8.912;2024-03-02T14:38:20;17.30;87.20
32534;DHT22;18973;48.580;8.912;2024-03-02T14:40:45;17.20;86.70
32534;DHT22;18973;48.580;8.912;2024-03-02T14:43:11;17.10;87.10
32534;DHT22;18973;48.580;8.912;2024-03-02T14:45:37;17.20;86.50
32534;DHT22;18973;48.580;8.912;2024-03-02T14:48:03;17.20;86.10
32534;DHT22;18973;48.580;8.912;2024-03-02T14:50:29;17.10;85.40
32534;DHT22;18973;48.580;8.912;2024-03-02T14:52:55;16.80;86.20
32534;DHT22;18973;48.580;8.912;2024-03-02T14:55:23;16.90;86.20
32534;DHT22;18973;48.580;8.912;2024-03-02T14:57:49;16.80;86.50
32534;DHT22;18973;48.580;8.912;2024-03-02T15:00:15;16.80;86.00
32534;DHT22;18973;48.580;8.912;2024-03-02T15:02:41;16.70;86.60
32534;DHT22;18973;48.580;8.912;2024-03-02T15:05:07;16.40;85.40
32534;DHT22;18973;48.580;8.912;2024-03-02T15:07:33;16.20;87.40
32534;DHT22;18973;48.580;8.912;2024-03-02T15:09:59;16.10;87.00
32534;DHT22;18973;48.580;8.912;2024-03-02T15:12:24;15.90;87.10
32534;DHT22;18973;48.580;8.912;2024-03-02T15:14:50;15.40;87.30
32534;DHT22;18973;48.580;8.912;2024-03-02T15:17:16;15.20;89.00
32534;DHT22;18973;48.580;8.912;2024-03-02T15:19:45;15.30;89.20
32534;DHT22;18973;48.580;8.912;2024-03-02T15:22:12;15.00;89.00
32534;DHT22;18973;48.580;8.912;2024-03-02T15:24:38;15.20;88.50
32534;DHT22;18973;48.580;8.912;2024-03-02T15:27:04;15.60;97.20
32534;DHT22;18973;48.580;8.912;2024-03-02T15:29:31;15.80;87.80
32534;DHT22;18973;48.580;8.912;2024-03-02T15:31:57;15.70;87.80
32534;DHT22;18973;48.580;8.912;2024-03-02T15:34:23;15.50;88.70
32534;DHT22;18973;48.580;8.912;2024-03-02T15:36:49;15.20;88.60
32534;DHT22;18973;48.580;8.912;2024-03-02T15:39:15;15.10;89.40
32534;DHT22;18973;48.580;8.912;2024-03-02T15:41:41;15.00;89.70
32534;DHT22;18973;48.580;8.912;2024-03-02T15:44:07;15.00;89.40
32534;DHT22;18973;48.580;8.912;2024-03-02T15:46:35;14.90;89.80
32534;DHT22;18973;48.580;8.912;2024-03-02T15:49:01;14.80;89.80
32534;DHT22;18973;48.580;8.912;2024-03-02T15:51:27;14.70;89.70
32534;DHT22;18973;48.580;8.912;2024-03-02T15:53:52;14.60;90.00
32534;DHT22;18973;48.580;8.912;2024-03-02T15:56:18;14.60;90.50
32534;DHT22;18973;48.580;8.912;2024-03-02T15:58:44;14.70;90.10